createdAt,value
2024-05-09T00:08:36.819Z,17.1
2024-05-09T00:38:36.246Z,17.1
2024-05-09T01:08:36.333Z,17.1
2024-05-09T01:38:50.858Z,17.0
2024-05-09T02:08:43.247Z,17.0
2024-05-09T02:38:43.754Z,17.0
2024-05-09T03:08:36.763Z,16.9
2024-05-09T03:38:36.693Z,16.8
2024-05-09T04:08:36.683Z,16.8
2024-05-09T04:38:36.780Z,16.8
2024-05-09T05:08:36.817Z,16.7
2024-05-09T05:38:43.818Z,16.7
2024-05-09T06:08:38.072Z,16.8
2024-05-09T06:38:36.881Z,16.8
2024-05-09T07:08:37.134Z,17.0
2024-05-09T07:38:37.016Z,17.0
2024-05-09T08:08:36.912Z,17.2
2024-05-09T08:38:36.859Z,17.3
2024-05-09T09:08:37.135Z,17.4
2024-05-09T09:38:36.834Z,17.6
2024-05-09T10:08:37.138Z,17.6
2024-05-09T10:38:36.813Z,17.8
2024-05-09T11:08:36.884Z,18.0
2024-05-09T11:38:36.948Z,18.1
2024-05-09T12:08:36.826Z,18.2
2024-05-09T13:08:36.867Z,18.5
2024-05-09T13:38:36.778Z,18.5
2024-05-09T14:08:36.862Z,18.6
2024-05-09T14:38:36.958Z,18.6
2024-05-09T15:08:36.761Z,18.7
2024-05-09T15:38:36.836Z,18.7
2024-05-09T16:08:36.834Z,18.7
2024-05-09T16:38:36.943Z,18.7
2024-05-09T17:08:36.770Z,18.6
2024-05-09T17:38:36.805Z,18.6
2024-05-09T18:08:36.872Z,18.6
2024-05-09T19:08:36.790Z,18.5
2024-05-09T19:38:36.725Z,18.5
2024-05-09T20:08:36.276Z,18.5
2024-05-09T20:38:36.731Z,18.4
2024-05-09T21:08:36.754Z,18.4
2024-05-09T21:38:36.778Z,18.3
2024-05-09T22:08:36.854Z,18.3
2024-05-09T23:08:36.977Z,18.3
2024-05-09T23:38:37.020Z,18.2
